createdAt,value
2022-10-08T00:00:37.415Z,100896.22
2022-10-08T00:03:07.836Z,100900.44
2022-10-08T00:05:38.104Z,100899.48
2022-10-08T00:08:09.716Z,100900.17
2022-10-08T00:10:40.014Z,100899.42
2022-10-08T00:13:10.258Z,100903.41
2022-10-08T00:15:41.196Z,100903.20
2022-10-08T00:18:11.539Z,100900.23
2022-10-08T00:20:41.820Z,100901.35
2022-10-08T00:23:12.171Z,100898.24
2022-10-08T00:25:43.821Z,100899.02
2022-10-08T00:28:15.074Z,100897.59
2022-10-08T00:30:45.871Z,100904.48
2022-10-08T00:33:16.460Z,100902.81
2022-10-08T00:35:46.745Z,100907.77
2022-10-08T00:38:16.991Z,100910.13
2022-10-08T00:40:47.736Z,100904.45
2022-10-08T00:43:21.738Z,100906.11
2022-10-08T00:45:55.729Z,100898.61
2022-10-08T00:48:26.311Z,100896.73
2022-10-08T00:50:56.698Z,100892.88
2022-10-08T00:53:27.090Z,100888.78
2022-10-08T00:55:57.443Z,100883.97
2022-10-08T00:58:29.314Z,100879.84
2022-10-08T01:01:01.288Z,100883.16
2022-10-08T01:03:31.736Z,100880.33
2022-10-08T01:06:09.093Z,100881.95
2022-10-08T01:08:48.751Z,100883.35
2022-10-08T01:11:33.553Z,100875.28
2022-10-08T01:14:12.761Z,100871.94
2022-10-08T01:16:49.214Z,100872.98
2022-10-08T01:19:48.188Z,100869.08
2022-10-08T01:22:35.924Z,100866.97
2022-10-08T01:25:27.552Z,100861.59
2022-10-08T01:28:04.656Z,100859.09
2022-10-08T01:30:37.352Z,100861.86
2022-10-08T01:33:12.963Z,100864.97
2022-10-08T01:35:47.516Z,100862.56
2022-10-08T01:38:21.706Z,100866.53
2022-10-08T01:40:58.922Z,100866.77
2022-10-08T01:43:35.053Z,100861.59
2022-10-08T01:46:11.679Z,100858.41
2022-10-08T01:48:45.431Z,100856.00
2022-10-08T01:51:23.487Z,100858.82
2022-10-08T01:53:56.026Z,100858.62
2022-10-08T01:56:30.921Z,100861.79
2022-10-08T01:59:07.587Z,100859.20
2022-10-08T02:01:44.756Z,100858.54
2022-10-08T02:04:33.448Z,100850.58
2022-10-08T02:07:05.741Z,100850.04
2022-10-08T02:09:39.879Z,100851.09
2022-10-08T02:12:11.159Z,100847.23
2022-10-08T02:14:44.759Z,100848.57
2022-10-08T02:17:25.226Z,100849.08
2022-10-08T02:20:01.208Z,100848.63
2022-10-08T02:22:37.476Z,100848.30
2022-10-08T02:25:14.874Z,100845.41
2022-10-08T02:27:56.125Z,100843.77
2022-10-08T02:30:30.689Z,100850.74
2022-10-08T02:33:06.429Z,100855.79
2022-10-08T02:35:41.796Z,100854.98
2022-10-08T02:38:15.860Z,100857.52
2022-10-08T02:40:49.899Z,100852.02
2022-10-08T02:43:25.655Z,100850.40
2022-10-08T02:46:01.658Z,100847.77
2022-10-08T02:48:34.447Z,100838.15
2022-10-08T02:51:11.181Z,100837.63
2022-10-08T02:53:43.170Z,100840.84
2022-10-08T02:56:16.604Z,100840.05
2022-10-08T02:58:48.048Z,100837.36
2022-10-08T03:01:26.741Z,100842.29
2022-10-08T03:04:03.252Z,100834.48
2022-10-08T03:06:35.969Z,100840.11
2022-10-08T03:09:08.458Z,100838.49
2022-10-08T03:11:40.086Z,100841.48
2022-10-08T03:14:14.519Z,100843.17
2022-10-08T03:16:47.109Z,100843.48
2022-10-08T03:19:19.546Z,100834.18
2022-10-08T03:21:54.680Z,100833.95
2022-10-08T03:24:25.427Z,100840.00
2022-10-08T03:26:56.450Z,100836.61
2022-10-08T03:29:26.790Z,100837.71
2022-10-08T03:31:57.130Z,100839.39
2022-10-08T03:34:28.792Z,100841.63
2022-10-08T03:36:59.135Z,100830.92
2022-10-08T03:39:29.577Z,100830.27
2022-10-08T03:42:00.235Z,100822.85
2022-10-08T03:44:30.579Z,100822.23
2022-10-08T03:47:00.939Z,100821.25
2022-10-08T03:49:31.302Z,100829.29
2022-10-08T03:52:01.723Z,100823.00
2022-10-08T03:54:32.154Z,100824.84
2022-10-08T03:57:02.842Z,100820.17
2022-10-08T03:59:33.244Z,100818.71
2022-10-08T04:02:04.015Z,100821.90
2022-10-08T04:04:34.421Z,100818.01
2022-10-08T04:07:04.892Z,100822.34
2022-10-08T04:09:35.357Z,100825.15
2022-10-08T04:12:06.031Z,100821.67
2022-10-08T04:14:36.538Z,100827.19
2022-10-08T04:17:06.882Z,100825.34
2022-10-08T04:19:37.240Z,100823.08
2022-10-08T04:22:07.899Z,100823.76
2022-10-08T04:24:38.266Z,100823.66
2022-10-08T04:27:08.650Z,100831.13
2022-10-08T04:29:39.284Z,100830.77
2022-10-08T04:32:10.044Z,100827.58
2022-10-08T04:34:40.345Z,100828.97
2022-10-08T04:37:11.377Z,100829.83
2022-10-08T04:39:42.262Z,100834.92
2022-10-08T04:42:12.619Z,100833.31
2022-10-08T04:44:43.236Z,100838.42
2022-10-08T04:47:13.593Z,100839.28
2022-10-08T04:49:44.187Z,100839.91
2022-10-08T04:52:16.910Z,100843.25
2022-10-08T04:54:47.634Z,100837.77
2022-10-08T04:57:17.965Z,100843.28
2022-10-08T05:00:06.121Z,100847.21
2022-10-08T05:02:39.623Z,100849.63
2022-10-08T05:05:11.033Z,100848.86
2022-10-08T05:07:41.366Z,100850.04
2022-10-08T05:10:12.720Z,100853.55
2022-10-08T05:12:43.120Z,100854.98
2022-10-08T05:15:14.250Z,100855.94
2022-10-08T05:17:44.609Z,100861.94
2022-10-08T05:20:15.077Z,100867.30
2022-10-08T05:22:45.816Z,100866.54
2022-10-08T05:25:16.721Z,100866.81
2022-10-08T05:27:47.347Z,100869.24
2022-10-08T05:30:21.884Z,100861.45
2022-10-08T05:32:52.491Z,100854.62
2022-10-08T05:35:22.833Z,100857.73
2022-10-08T05:37:53.131Z,100859.35
2022-10-08T05:40:24.307Z,100856.23
2022-10-08T05:42:54.974Z,100859.77
2022-10-08T05:45:25.336Z,100858.98
2022-10-08T05:47:55.975Z,100863.20
2022-10-08T05:50:26.303Z,100863.83
2022-10-08T05:52:56.903Z,100862.25
2022-10-08T05:55:27.577Z,100869.88
2022-10-08T05:57:57.905Z,100876.47
2022-10-08T06:00:28.776Z,100880.10
2022-10-08T06:02:59.252Z,100879.52
2022-10-08T06:05:29.646Z,100884.55
2022-10-08T06:08:00.009Z,100888.49
2022-10-08T06:10:32.082Z,100893.45
2022-10-08T06:13:02.398Z,100895.94
2022-10-08T06:15:32.743Z,100897.52
2022-10-08T06:18:03.168Z,100900.92
2022-10-08T06:20:33.665Z,100902.01
2022-10-08T06:23:04.692Z,100905.39
2022-10-08T06:25:38.467Z,100907.30
2022-10-08T06:28:09.217Z,100911.16
2022-10-08T06:30:42.267Z,100914.76
2022-10-08T06:33:13.170Z,100916.23
2022-10-08T06:35:43.498Z,100920.56
2022-10-08T06:38:13.823Z,100919.58
2022-10-08T06:40:44.656Z,100924.89
2022-10-08T06:43:17.352Z,100927.05
2022-10-08T06:45:48.917Z,100932.23
2022-10-08T06:48:19.857Z,100938.89
2022-10-08T06:50:50.220Z,100937.48
2022-10-08T06:53:20.555Z,100934.91
2022-10-08T06:55:50.951Z,100926.54
2022-10-08T06:58:22.171Z,100928.06
2022-10-08T07:01:01.366Z,100919.46
2022-10-08T07:03:32.147Z,100934.05
2022-10-08T07:06:04.761Z,100930.52
2022-10-08T07:08:36.106Z,100931.71
2022-10-08T07:11:08.507Z,100922.84
2022-10-08T07:13:39.862Z,100929.04
2022-10-08T07:16:14.697Z,100952.96
2022-10-08T07:18:50.781Z,100960.38
2022-10-08T07:21:22.487Z,100964.02
2022-10-08T07:23:53.763Z,100961.45
2022-10-08T07:26:26.594Z,100950.73
2022-10-08T07:28:59.588Z,100947.63
2022-10-08T07:31:31.785Z,100953.30
2022-10-08T07:34:04.729Z,100961.02
2022-10-08T07:36:35.186Z,100968.36
2022-10-08T07:39:07.983Z,100971.70
2022-10-08T07:41:38.386Z,100973.69
2022-10-08T07:44:09.374Z,100975.52
2022-10-08T07:46:44.656Z,100980.20
2022-10-08T07:49:15.816Z,100992.95
2022-10-08T07:51:48.163Z,100990.80
2022-10-08T07:54:20.712Z,100999.57
2022-10-08T07:56:51.499Z,101002.06
2022-10-08T07:59:22.254Z,101007.13
2022-10-08T08:01:54.126Z,101006.66
2022-10-08T08:04:27.367Z,101012.77
2022-10-08T08:06:58.083Z,101014.92
2022-10-08T08:09:30.179Z,101018.36
2022-10-08T08:12:00.527Z,101025.23
2022-10-08T08:14:30.915Z,101027.95
2022-10-08T08:17:02.040Z,101029.77
2022-10-08T08:19:33.150Z,101031.20
2022-10-08T08:22:03.500Z,101034.28
2022-10-08T08:24:34.273Z,101039.99
2022-10-08T08:27:05.278Z,101043.13
2022-10-08T08:29:36.023Z,101045.20
2022-10-08T08:32:06.800Z,101050.64
2022-10-08T08:34:38.703Z,101050.62
2022-10-08T08:37:09.075Z,101059.64
2022-10-08T08:39:39.489Z,101064.10
2022-10-08T08:42:24.648Z,101068.04
2022-10-08T08:45:01.542Z,101067.23
2022-10-08T08:47:36.236Z,101073.64
2022-10-08T08:50:16.795Z,101072.63
2022-10-08T08:52:47.396Z,101080.23
2022-10-08T08:55:20.535Z,101080.73
2022-10-08T08:57:58.473Z,101087.06
2022-10-08T09:00:35.960Z,101088.54
2022-10-08T09:03:12.322Z,101093.77
2022-10-08T09:05:47.232Z,101096.60
2022-10-08T09:08:22.181Z,101099.11
2022-10-08T09:10:57.963Z,101102.48
2022-10-08T09:13:32.818Z,101107.30
2022-10-08T09:16:04.862Z,101107.27
2022-10-08T09:18:35.422Z,101111.69
2022-10-08T09:21:06.770Z,101109.67
2022-10-08T09:23:38.320Z,101108.23
2022-10-08T09:26:20.534Z,101117.85
2022-10-08T09:28:55.301Z,101117.13
2022-10-08T09:31:49.079Z,101114.15
2022-10-08T09:34:28.270Z,101122.11
2022-10-08T09:37:19.766Z,101126.84
2022-10-08T09:40:23.302Z,101132.38
2022-10-08T09:43:28.333Z,101130.10
2022-10-08T09:46:06.725Z,101129.09
2022-10-08T09:48:56.216Z,101133.19
2022-10-08T09:51:37.630Z,101136.18
2022-10-08T09:54:21.501Z,101137.02
2022-10-08T09:57:05.102Z,101140.71
2022-10-08T09:59:43.947Z,101140.20
2022-10-08T10:02:47.609Z,101143.02
2022-10-08T10:05:29.625Z,101148.45
2022-10-08T10:08:08.529Z,101151.05
2022-10-08T10:10:56.256Z,101151.25
2022-10-08T10:13:47.723Z,101149.16
2022-10-08T10:16:33.266Z,101150.02
2022-10-08T10:19:21.478Z,101152.73
2022-10-08T10:22:04.981Z,101145.59
2022-10-08T10:24:56.335Z,101143.00
2022-10-08T10:27:41.570Z,101147.41
2022-10-08T10:30:49.667Z,101143.53
2022-10-08T10:33:36.037Z,101140.02
2022-10-08T10:36:16.887Z,101139.40
2022-10-08T10:39:22.375Z,101136.55
2022-10-08T10:42:14.431Z,101141.70
2022-10-08T10:44:54.744Z,101140.68
2022-10-08T10:47:32.412Z,101136.38
2022-10-08T10:50:03.863Z,101136.14
2022-10-08T10:52:59.330Z,101132.27
2022-10-08T10:55:37.337Z,101130.89
2022-10-08T10:58:43.265Z,101130.95
2022-10-08T11:01:32.599Z,101133.05
2022-10-08T11:04:20.115Z,101132.35
2022-10-08T11:07:07.477Z,101132.60
2022-10-08T11:09:52.465Z,101126.80
2022-10-08T11:12:39.319Z,101132.77
2022-10-08T11:15:28.547Z,101134.58
2022-10-08T11:18:19.448Z,101131.66
2022-10-08T11:21:10.970Z,101126.23
2022-10-08T11:23:59.895Z,101129.05
2022-10-08T11:26:39.917Z,101131.30
2022-10-08T11:29:21.685Z,101128.10
2022-10-08T11:31:54.681Z,101126.05
2022-10-08T11:34:33.821Z,101122.02
2022-10-08T11:37:15.284Z,101121.98
2022-10-08T11:39:59.973Z,101120.30
2022-10-08T11:42:45.041Z,101116.01
2022-10-08T11:45:37.796Z,101116.47
2022-10-08T11:48:38.817Z,101114.28
2022-10-08T11:51:43.480Z,101114.20
2022-10-08T11:54:26.506Z,101112.91
2022-10-08T11:57:23.170Z,101110.98
2022-10-08T12:00:08.742Z,101113.11
2022-10-08T12:02:53.298Z,101105.17
2022-10-08T12:05:46.669Z,101106.30
2022-10-08T12:08:54.096Z,101101.20
2022-10-08T12:11:52.455Z,101094.36
2022-10-08T12:14:53.206Z,101109.48
2022-10-08T12:17:45.707Z,101119.66
2022-10-08T12:20:24.553Z,101130.21
2022-10-08T12:23:08.920Z,101136.96
2022-10-08T12:26:05.524Z,101136.79
2022-10-08T12:28:53.770Z,101159.18
2022-10-08T12:31:40.378Z,101165.37
2022-10-08T12:34:23.019Z,101174.99
2022-10-08T12:37:07.821Z,101176.56
2022-10-08T12:39:45.615Z,101192.96
2022-10-08T12:42:20.032Z,101188.25
2022-10-08T12:45:08.593Z,101187.41
2022-10-08T12:47:54.330Z,101187.25
2022-10-08T12:50:53.893Z,101183.02
2022-10-08T12:53:26.191Z,101180.45
2022-10-08T12:56:00.126Z,101183.19
2022-10-08T12:58:36.455Z,101187.50
2022-10-08T13:01:08.921Z,101185.67
2022-10-08T13:03:41.439Z,101185.13
2022-10-08T13:06:31.754Z,101184.38
2022-10-08T13:09:25.688Z,101192.86
2022-10-08T13:12:03.198Z,101197.97
2022-10-08T13:14:40.269Z,101200.08
2022-10-08T13:17:30.540Z,101199.02
2022-10-08T13:20:16.389Z,101201.52
2022-10-08T13:22:50.353Z,101198.69
2022-10-08T13:25:42.249Z,101201.69
2022-10-08T13:28:31.085Z,101199.02
2022-10-08T13:31:26.008Z,101197.20
2022-10-08T13:33:57.649Z,101202.43
2022-10-08T13:36:29.419Z,101205.09
2022-10-08T13:39:02.146Z,101207.12
2022-10-08T13:41:33.895Z,101210.19
2022-10-08T13:44:06.786Z,101210.14
2022-10-08T13:46:39.619Z,101209.89
2022-10-08T13:49:23.560Z,101210.02
2022-10-08T13:51:59.690Z,101208.74
2022-10-08T13:54:33.974Z,101210.31
2022-10-08T13:57:10.395Z,101216.86
2022-10-08T13:59:43.483Z,101228.77
2022-10-08T14:02:17.958Z,101229.33
2022-10-08T14:04:54.026Z,101225.02
2022-10-08T14:07:29.974Z,101222.10
2022-10-08T14:10:04.039Z,101221.64
2022-10-08T14:12:38.195Z,101218.73
2022-10-08T14:15:14.292Z,101220.29
2022-10-08T14:17:46.576Z,101228.43
2022-10-08T14:20:20.893Z,101232.41
2022-10-08T14:22:55.299Z,101241.74
2022-10-08T14:25:34.283Z,101244.11
2022-10-08T14:28:06.627Z,101244.83
2022-10-08T14:30:42.428Z,101247.31
2022-10-08T14:33:14.294Z,101255.10
2022-10-08T14:35:47.612Z,101258.77
2022-10-08T14:38:19.252Z,101249.26
2022-10-08T14:40:50.831Z,101248.84
2022-10-08T14:43:27.668Z,101258.48
2022-10-08T14:46:02.374Z,101263.43
2022-10-08T14:48:36.669Z,101263.64
2022-10-08T14:51:08.728Z,101261.90
2022-10-08T14:53:42.705Z,101262.67
2022-10-08T14:56:19.664Z,101264.02
2022-10-08T14:58:51.836Z,101262.50
2022-10-08T15:01:23.463Z,101267.27
2022-10-08T15:03:54.925Z,101263.67
2022-10-08T15:06:26.881Z,101258.89
2022-10-08T15:08:58.565Z,101264.42
2022-10-08T15:11:30.948Z,101267.96
2022-10-08T15:14:02.996Z,101277.97
2022-10-08T15:16:37.327Z,101281.59
2022-10-08T15:19:11.778Z,101278.85
2022-10-08T15:21:43.610Z,101287.55
2022-10-08T15:24:16.581Z,101286.39
2022-10-08T15:26:49.851Z,101293.10
2022-10-08T15:29:26.426Z,101290.93
2022-10-08T15:31:58.193Z,101295.39
2022-10-08T15:34:33.115Z,101293.81
2022-10-08T15:37:07.863Z,101299.33
2022-10-08T15:39:40.917Z,101299.04
2022-10-08T15:42:14.531Z,101305.65
2022-10-08T15:44:48.362Z,101310.96
2022-10-08T15:47:21.582Z,101317.07
2022-10-08T15:49:55.855Z,101317.52
2022-10-08T15:52:31.073Z,101321.45
2022-10-08T15:55:06.775Z,101323.41
2022-10-08T15:57:39.541Z,101327.38
2022-10-08T16:00:21.107Z,101330.73
2022-10-08T16:02:56.461Z,101334.86
2022-10-08T16:05:30.514Z,101338.10
2022-10-08T16:08:02.218Z,101344.87
2022-10-08T16:10:35.334Z,101350.59
2022-10-08T16:13:08.163Z,101351.59
2022-10-08T16:15:46.059Z,101348.60
2022-10-08T16:18:28.538Z,101352.64
2022-10-08T16:21:12.471Z,101357.05
2022-10-08T16:23:49.270Z,101365.33
2022-10-08T16:26:22.361Z,101367.40
2022-10-08T16:28:56.893Z,101370.19
2022-10-08T16:31:33.703Z,101374.79
2022-10-08T16:34:08.267Z,101380.71
2022-10-08T16:36:39.840Z,101381.83
2022-10-08T16:39:13.447Z,101385.14
2022-10-08T16:41:47.738Z,101386.42
2022-10-08T16:44:23.244Z,101392.65
2022-10-08T16:46:58.926Z,101399.77
2022-10-08T16:49:32.269Z,101400.17
2022-10-08T16:52:11.454Z,101403.84
2022-10-08T16:54:43.697Z,101405.73
2022-10-08T16:57:18.093Z,101408.81
2022-10-08T16:59:50.522Z,101416.39
2022-10-08T17:02:25.982Z,101411.67
2022-10-08T17:04:59.678Z,101418.69
2022-10-08T17:07:32.043Z,101424.89
2022-10-08T17:10:03.780Z,101431.88
2022-10-08T17:12:35.276Z,101437.36
2022-10-08T17:15:10.425Z,101438.15
2022-10-08T17:17:42.450Z,101441.50
2022-10-08T17:20:14.942Z,101444.13
2022-10-08T17:22:48.158Z,101452.37
2022-10-08T17:25:21.843Z,101456.24
2022-10-08T17:27:55.134Z,101458.27
2022-10-08T17:30:27.943Z,101462.52
2022-10-08T17:33:00.913Z,101471.61
2022-10-08T17:35:32.358Z,101478.25
2022-10-08T17:38:05.185Z,101479.59
2022-10-08T17:40:36.413Z,101484.24
2022-10-08T17:43:09.373Z,101489.52
2022-10-08T17:45:41.396Z,101494.41
2022-10-08T17:48:13.920Z,101498.74
2022-10-08T17:50:47.726Z,101499.73
2022-10-08T17:53:23.489Z,101507.38
2022-10-08T17:56:03.208Z,101510.04
2022-10-08T17:58:37.598Z,101514.80
2022-10-08T18:01:13.012Z,101515.05
2022-10-08T18:03:52.310Z,101515.27
2022-10-08T18:06:28.939Z,101518.73
2022-10-08T18:09:01.829Z,101524.38
2022-10-08T18:11:37.808Z,101527.99
2022-10-08T18:14:12.694Z,101536.27
2022-10-08T18:16:48.089Z,101543.03
2022-10-08T18:19:21.816Z,101550.77
2022-10-08T18:21:55.489Z,101551.10
2022-10-08T18:24:30.302Z,101554.45
2022-10-08T18:27:05.772Z,101555.70
2022-10-08T18:29:40.707Z,101558.25
2022-10-08T18:32:15.455Z,101566.15
2022-10-08T18:34:48.380Z,101567.52
2022-10-08T18:37:21.316Z,101573.49
2022-10-08T18:39:54.676Z,101575.04
2022-10-08T18:42:27.874Z,101577.63
2022-10-08T18:44:59.752Z,101579.65
2022-10-08T18:47:32.468Z,101582.30
2022-10-08T18:50:10.825Z,101584.23
2022-10-08T18:52:46.727Z,101587.29
2022-10-08T18:55:19.226Z,101591.52
2022-10-08T18:57:54.723Z,101596.15
2022-10-08T19:00:26.790Z,101597.29
2022-10-08T19:02:59.803Z,101595.06
2022-10-08T19:05:38.822Z,101598.13
2022-10-08T19:08:13.365Z,101600.77
2022-10-08T19:10:45.610Z,101605.03
2022-10-08T19:13:18.281Z,101605.53
2022-10-08T19:15:50.830Z,101608.52
2022-10-08T19:18:22.806Z,101613.39
2022-10-08T19:20:55.718Z,101614.64
2022-10-08T19:23:28.154Z,101619.20
2022-10-08T19:26:01.496Z,101621.67
2022-10-08T19:28:34.515Z,101624.59
2022-10-08T19:31:16.072Z,101625.84
2022-10-08T19:33:51.806Z,101631.15
2022-10-08T19:36:24.648Z,101630.31
2022-10-08T19:38:57.714Z,101630.27
2022-10-08T19:41:29.825Z,101634.82
2022-10-08T19:44:01.514Z,101637.36
2022-10-08T19:46:34.321Z,101640.92
2022-10-08T19:49:08.020Z,101646.80
2022-10-08T19:51:40.914Z,101653.16
2022-10-08T19:54:14.530Z,101657.52
2022-10-08T19:56:47.543Z,101655.27
2022-10-08T19:59:19.293Z,101659.73
2022-10-08T20:01:51.218Z,101661.45
2022-10-08T20:04:24.190Z,101666.68
2022-10-08T20:06:55.903Z,101666.48
2022-10-08T20:09:28.162Z,101669.70
2022-10-08T20:11:59.808Z,101674.87
2022-10-08T20:14:31.774Z,101679.89
2022-10-08T20:17:04.073Z,101678.24
2022-10-08T20:19:40.065Z,101680.70
2022-10-08T20:22:12.324Z,101682.83
2022-10-08T20:24:47.323Z,101683.02
2022-10-08T20:27:19.441Z,101683.50
2022-10-08T20:29:51.517Z,101684.05
2022-10-08T20:32:25.197Z,101682.82
2022-10-08T20:34:57.032Z,101688.94
2022-10-08T20:37:29.019Z,101688.26
2022-10-08T20:40:00.719Z,101686.98
2022-10-08T20:42:32.591Z,101689.63
2022-10-08T20:45:04.804Z,101695.54
2022-10-08T20:47:36.330Z,101688.83
2022-10-08T20:50:09.273Z,101691.77
2022-10-08T20:52:42.903Z,101695.98
2022-10-08T20:55:14.663Z,101693.92
2022-10-08T20:57:46.381Z,101699.81
2022-10-08T21:00:20.151Z,101694.55
2022-10-08T21:02:55.362Z,101701.66
2022-10-08T21:05:27.232Z,101700.46
2022-10-08T21:08:01.619Z,101706.34
2022-10-08T21:10:35.804Z,101707.16
2022-10-08T21:13:08.054Z,101710.27
2022-10-08T21:15:39.346Z,101711.34
2022-10-08T21:18:16.227Z,101712.27
2022-10-08T21:20:49.325Z,101712.98
2022-10-08T21:23:24.020Z,101718.48
2022-10-08T21:25:55.764Z,101720.42
2022-10-08T21:28:29.700Z,101719.27
2022-10-08T21:31:04.235Z,101723.05
2022-10-08T21:33:37.856Z,101724.83
2022-10-08T21:36:11.969Z,101731.73
2022-10-08T21:38:43.536Z,101730.86
2022-10-08T21:41:18.464Z,101736.92
2022-10-08T21:43:51.248Z,101735.57
2022-10-08T21:46:24.502Z,101734.54
2022-10-08T21:48:58.231Z,101736.66
2022-10-08T21:51:30.329Z,101734.03
2022-10-08T21:54:03.712Z,101733.66
2022-10-08T21:56:36.809Z,101736.52
2022-10-08T21:59:09.827Z,101737.76
2022-10-08T22:01:43.328Z,101739.22
2022-10-08T22:04:16.220Z,101744.61
2022-10-08T22:06:49.674Z,101744.91
2022-10-08T22:09:22.907Z,101751.80
2022-10-08T22:11:54.636Z,101756.30
2022-10-08T22:14:26.285Z,101760.50
2022-10-08T22:16:57.209Z,101764.27
2022-10-08T22:19:28.822Z,101761.52
2022-10-08T22:21:59.949Z,101764.65
2022-10-08T22:24:31.716Z,101765.86
2022-10-08T22:27:04.789Z,101765.67
2022-10-08T22:29:36.528Z,101768.95
2022-10-08T22:32:07.540Z,101769.17
2022-10-08T22:34:38.599Z,101766.82
2022-10-08T22:37:10.182Z,101771.52
2022-10-08T22:39:42.196Z,101766.85
2022-10-08T22:42:13.765Z,101773.58
2022-10-08T22:44:44.951Z,101774.79
2022-10-08T22:47:15.995Z,101774.65
2022-10-08T22:49:47.115Z,101773.52
2022-10-08T22:52:18.307Z,101774.88
2022-10-08T22:54:49.798Z,101773.82
2022-10-08T22:57:20.912Z,101773.10
2022-10-08T22:59:51.734Z,101771.73
2022-10-08T23:02:22.753Z,101773.97
2022-10-08T23:04:53.755Z,101773.27
2022-10-08T23:07:24.690Z,101774.86
2022-10-08T23:09:55.545Z,101777.06
2022-10-08T23:12:26.670Z,101778.86
2022-10-08T23:14:58.060Z,101779.33
2022-10-08T23:17:29.117Z,101781.19
2022-10-08T23:20:00.194Z,101778.80
2022-10-08T23:22:33.706Z,101783.49
2022-10-08T23:25:04.829Z,101785.10
2022-10-08T23:27:35.973Z,101789.31
2022-10-08T23:30:25.566Z,101792.98
2022-10-08T23:32:59.477Z,101791.92
2022-10-08T23:35:30.592Z,101794.81
2022-10-08T23:38:01.627Z,101798.31
2022-10-08T23:40:32.787Z,101800.45
2022-10-08T23:43:05.884Z,101802.53
2022-10-08T23:45:39.039Z,101801.31
2022-10-08T23:48:12.786Z,101800.42
2022-10-08T23:50:44.512Z,101802.01
2022-10-08T23:53:16.817Z,101805.80
2022-10-08T23:55:47.654Z,101809.27
2022-10-08T23:58:19.704Z,101812.89
